Time;durP1;ratioP1;P1;durP2;ratioP2;P2;SDS_P1;SDS_P2;PMS_P1;PMS_P2;Temp;Humidity;BMP_temperature;BMP_pressure;BME280_temperature;BME280_humidity;BME280_pressure;Samples;Min_cycle;Max_cycle;Signal;HPM_P1;HPM_P2
2023/04/23 00:00:31;;;;;;;17.90;9.90;;;;;;;8.74;65.44;100039.24;105555;1251;69138;-51
2023/04/23 00:03:29;;;;;;;17.20;10.60;;;;;;;8.77;65.47;100037.79;105616;1255;69114;-54
2023/04/23 00:06:07;;;;;;;16.60;10.50;;;;;;;8.77;65.23;100039.15;105623;1252;73869;-51
2023/04/23 00:08:47;;;;;;;16.30;9.80;;;;;;;8.85;65.30;100040.46;105627;1254;83058;-51
2023/04/23 00:11:21;;;;;;;17.30;10.20;;;;;;;8.90;65.15;100036.40;105512;1251;73704;-52
2023/04/23 00:14:03;;;;;;;16.80;10.60;;;;;;;8.91;64.88;100034.29;105834;1257;69234;-52
2023/04/23 00:16:37;;;;;;;15.90;10.40;;;;;;;8.95;64.86;100038.33;105640;1253;69155;-58
2023/04/23 00:19:11;;;;;;;15.70;10.20;;;;;;;9.03;64.72;100038.05;105649;1251;74886;-54
2023/04/23 00:22:15;;;;;;;15.00;10.10;;;;;;;9.09;64.76;100034.84;105656;1251;83372;-53
2023/04/23 00:24:50;;;;;;;16.50;10.70;;;;;;;9.04;64.73;100036.44;105842;1251;73921;-52
2023/04/23 00:27:24;;;;;;;16.90;11.00;;;;;;;9.00;64.61;100034.32;105585;1255;69103;-51
2023/04/23 00:30:05;;;;;;;18.30;12.10;;;;;;;9.00;64.45;100029.61;105663;1251;69223;-51
2023/04/23 00:32:40;;;;;;;;;;;;;;;9.01;64.35;100027.48;105621;1257;74377;-51
2023/04/23 00:35:19;;;;;;;16.00;11.20;;;;;;;9.04;64.27;100025.14;105624;1254;83171;-52
2023/04/23 00:38:02;;;;;;;16.70;11.40;;;;;;;9.06;64.19;100024.02;105511;1257;73472;-53
2023/04/23 00:40:36;;;;;;;17.90;11.70;;;;;;;9.07;64.12;100018.39;105888;1256;69183;-51
2023/04/23 00:43:11;;;;;;;16.70;10.40;;;;;;;9.09;64.14;100016.38;105624;1254;69972;-51
2023/04/23 00:45:45;;;;;;;16.80;10.90;;;;;;;9.12;64.11;100009.98;105490;1257;74132;-51
2023/04/23 00:48:19;;;;;;;20.10;12.00;;;;;;;9.04;63.87;100007.68;105781;1254;83082;-54
2023/04/23 00:50:55;;;;;;;16.30;10.40;;;;;;;8.94;63.90;100004.55;105611;1252;73392;-55
2023/04/23 00:53:29;;;;;;;15.40;10.20;;;;;;;8.87;64.00;100002.56;105486;1257;69035;-52
2023/04/23 00:56:06;;;;;;;16.30;10.90;;;;;;;8.82;63.89;100005.00;105477;1257;69202;-51
2023/04/23 00:58:40;;;;;;;16.70;10.90;;;;;;;8.79;64.33;100005.80;105524;1257;74840;-54
2023/04/23 01:01:21;;;;;;;16.30;11.20;;;;;;;8.77;64.39;100002.41;105599;1251;83388;-52
2023/04/23 01:03:55;;;;;;;17.80;11.10;;;;;;;8.74;64.52;100001.27;105469;1257;73887;-50
2023/04/23 01:06:35;;;;;;;15.90;10.90;;;;;;;8.72;64.43;100002.06;105507;1257;69211;-51
2023/04/23 01:09:12;;;;;;;19.50;11.90;;;;;;;8.67;64.43;100000.84;105597;1255;69886;-54
2023/04/23 01:11:56;;;;;;;16.60;11.80;;;;;;;8.59;64.39;99997.62;105516;1251;74833;-54
2023/04/23 01:14:35;;;;;;;15.70;11.60;;;;;;;8.47;64.57;99994.91;105614;1254;83340;-54
2023/04/23 01:17:18;;;;;;;17.00;11.80;;;;;;;8.35;64.54;99995.11;105621;1256;72997;-53
2023/04/23 01:20:03;;;;;;;17.90;10.90;;;;;;;8.27;64.79;99996.81;105530;1251;69493;-53
2023/04/23 01:23:02;;;;;;;14.40;10.40;;;;;;;8.24;65.23;99996.38;105568;1251;69083;-57
2023/04/23 01:25:43;;;;;;;20.10;11.00;;;;;;;8.19;65.30;99990.79;105594;1254;75009;-51
2023/04/23 01:28:25;;;;;;;17.10;10.50;;;;;;;8.21;65.43;99987.41;105596;1251;83869;-55
2023/04/23 01:31:16;;;;;;;19.60;10.30;;;;;;;8.16;65.39;99987.61;105576;1251;73806;-50
2023/04/23 01:33:55;;;;;;;15.10;10.70;;;;;;;8.09;65.37;99984.00;105476;1251;69171;-53
2023/04/23 01:36:42;;;;;;;16.50;10.90;;;;;;;7.99;65.37;99982.08;105440;1251;69170;-52
2023/04/23 01:39:30;;;;;;;17.50;11.10;;;;;;;7.86;65.61;99979.69;105645;1251;73937;-51
2023/04/23 01:42:10;;;;;;;14.40;10.40;;;;;;;7.76;65.91;99977.26;105582;1254;83259;-51
2023/04/23 01:44:46;;;;;;;14.60;10.10;;;;;;;7.65;66.01;99975.54;105851;1254;73827;-54
2023/04/23 01:47:25;;;;;;;15.80;10.40;;;;;;;7.54;66.30;99978.12;105546;1252;69306;-51
2023/04/23 01:50:11;;;;;;;15.90;10.80;;;;;;;7.44;66.17;99974.61;105624;1251;69081;-55
2023/04/23 01:52:50;;;;;;;19.50;12.20;;;;;;;7.40;66.63;99978.72;105615;1251;75163;-52
2023/04/23 01:55:41;;;;;;;21.40;12.70;;;;;;;7.48;66.99;99976.57;105620;1251;82511;-50
2023/04/23 01:58:17;;;;;;;;;;;;;;;7.59;67.23;99977.61;105646;1254;72879;-50
2023/04/23 02:00:58;;;;;;;17.90;12.00;;;;;;;7.63;67.40;99974.39;105498;1251;69175;-54
2023/04/23 02:03:45;;;;;;;;;;;;;;;7.62;67.19;99973.88;105620;1256;69242;-53
2023/04/23 02:06:29;;;;;;;17.70;12.80;;;;;;;7.68;67.28;99971.40;105589;1251;74832;-55
2023/04/23 02:09:07;;;;;;;21.50;12.40;;;;;;;7.81;67.32;99969.08;105626;1255;83071;-52
2023/04/23 02:11:56;;;;;;;19.40;13.00;;;;;;;7.90;67.15;99964.95;105514;1252;73881;-55
2023/04/23 02:14:33;;;;;;;16.00;11.30;;;;;;;7.91;67.08;99965.47;105572;1251;69987;-53
2023/04/23 02:17:25;;;;;;;17.90;11.70;;;;;;;7.86;66.91;99964.77;105556;1254;69889;-54
2023/04/23 02:20:02;;;;;;;19.20;13.00;;;;;;;7.82;66.81;99962.96;105638;1254;75056;-50
2023/04/23 02:22:39;;;;;;;23.00;13.20;;;;;;;7.88;66.90;99960.85;105580;1254;83251;-53
2023/04/23 02:25:29;;;;;;;20.60;12.80;;;;;;;7.96;66.86;99964.95;105563;1254;73517;-55
2023/04/23 02:28:07;;;;;;;17.30;11.80;;;;;;;8.02;66.83;99962.28;105562;1251;69211;-56
2023/04/23 02:30:53;;;;;;;17.70;12.50;;;;;;;8.09;66.77;99961.18;105583;1255;69828;-54
2023/04/23 02:33:37;;;;;;;19.50;12.50;;;;;;;8.18;66.98;99958.47;105578;1251;75033;-51
2023/04/23 02:36:21;;;;;;;18.80;12.40;;;;;;;8.24;66.71;99957.36;105546;1251;82134;-52
2023/04/23 02:39:04;;;;;;;20.80;13.10;;;;;;;8.31;66.64;99954.02;105515;1256;73000;-56
2023/04/23 02:41:55;;;;;;;20.00;13.50;;;;;;;8.36;66.48;99950.71;105617;1252;69165;-53
2023/04/23 02:44:32;;;;;;;21.20;13.80;;;;;;;8.40;66.48;99951.11;105603;1253;69901;-51
2023/04/23 02:47:24;;;;;;;19.10;13.10;;;;;;;8.45;66.48;99952.33;105748;1251;74676;-51
2023/04/23 02:50:18;;;;;;;21.60;13.30;;;;;;;8.51;66.51;99950.55;105688;1251;83435;-50
2023/04/23 02:53:00;;;;;;;20.50;13.40;;;;;;;8.56;66.30;99951.44;105526;1251;72699;-51
2023/04/23 02:55:37;;;;;;;23.40;13.30;;;;;;;8.59;66.19;99952.38;105538;1251;69079;-51
2023/04/23 02:58:28;;;;;;;18.10;12.20;;;;;;;8.56;66.05;99955.42;105636;1251;69192;-51
2023/04/23 03:01:11;;;;;;;17.90;12.60;;;;;;;8.53;65.97;99953.61;105623;1254;74813;-51
2023/04/23 03:03:48;;;;;;;24.00;13.50;;;;;;;8.54;65.97;99952.90;105515;1252;83540;-56
2023/04/23 03:06:50;;;;;;;18.90;12.80;;;;;;;8.60;66.16;99953.21;105610;1251;73849;-56
2023/04/23 03:09:42;;;;;;;22.10;12.70;;;;;;;8.63;66.06;99949.93;105532;1251;69806;-55
2023/04/23 03:12:11;;;;;;;19.90;12.60;;;;;;;8.66;65.99;99950.54;105575;1251;69170;-50
2023/04/23 03:15:01;;;;;;;17.50;12.90;;;;;;;8.69;65.96;99945.20;105484;1257;75339;-50
2023/04/23 03:17:54;;;;;;;;;;;;;;;;;;;;;
2023/04/23 03:21:13;;;;;;;21.40;14.60;;;;;;;8.78;65.82;99937.53;105513;1251;73083;-53
2023/04/23 03:23:55;;;;;;;20.30;14.00;;;;;;;8.82;65.97;99937.42;105650;1254;69141;-53
2023/04/23 03:26:34;;;;;;;21.50;15.10;;;;;;;8.81;65.76;99932.91;105588;1254;69060;-52
2023/04/23 03:29:12;;;;;;;24.20;14.80;;;;;;;8.81;65.70;99932.77;105585;1251;75053;-50
2023/04/23 03:32:08;;;;;;;22.70;14.90;;;;;;;8.77;65.55;99931.49;105596;1254;83283;-50
2023/04/23 03:34:49;;;;;;;23.20;14.50;;;;;;;8.75;65.67;99931.92;105568;1250;73951;-54
2023/04/23 03:37:39;;;;;;;;;;;;;;;;;;;;;
2023/04/23 03:40:31;;;;;;;;;;;;;;;;;;;;;
2023/04/23 03:43:14;;;;;;;19.40;13.10;;;;;;;8.67;65.78;99937.61;105583;1251;74163;-55
2023/04/23 03:46:07;;;;;;;22.00;13.70;;;;;;;8.65;65.72;99939.60;105554;1251;83842;-53
2023/04/23 03:48:52;;;;;;;19.20;13.20;;;;;;;8.68;66.06;99935.63;105565;1251;72707;-55
2023/04/23 03:51:57;;;;;;;25.80;13.30;;;;;;;8.74;66.14;99935.60;105539;1254;69198;-51
2023/04/23 03:54:48;;;;;;;17.80;12.90;;;;;;;8.82;66.09;99939.32;105478;1251;69156;-53
2023/04/23 03:57:41;;;;;;;22.60;14.10;;;;;;;8.87;66.09;99933.71;105795;1254;73881;-53
2023/04/23 04:00:38;;;;;;;19.00;13.20;;;;;;;8.89;65.94;99934.17;105597;1255;83409;-52
2023/04/23 04:03:45;;;;;;;22.60;14.50;;;;;;;8.86;65.88;99935.35;105559;1251;72742;-55
2023/04/23 04:06:36;;;;;;;22.70;14.80;;;;;;;8.84;65.98;99930.02;105534;1254;69134;-56
2023/04/23 04:09:20;;;;;;;20.20;14.20;;;;;;;8.86;65.97;99934.48;105557;1251;69838;-53
2023/04/23 04:12:13;;;;;;;20.50;13.70;;;;;;;8.85;66.10;99929.64;105622;1254;75156;-53
2023/04/23 04:14:56;;;;;;;19.20;14.30;;;;;;;8.88;66.05;99930.74;105625;1250;83653;-60
2023/04/23 04:17:51;;;;;;;;;;;;;;;;;;;;;
2023/04/23 04:20:43;;;;;;;17.80;13.70;;;;;;;8.97;66.20;99927.26;105568;1251;69128;-51
2023/04/23 04:23:45;;;;;;;;;;;;;;;;;;;;;
2023/04/23 04:26:37;;;;;;;;;;;;;;;;;;;;;
2023/04/23 04:29:12;;;;;;;20.80;12.10;;;;;;;9.08;66.21;99928.23;105608;1251;83483;-53
2023/04/23 04:31:43;;;;;;;19.40;12.20;;;;;;;9.14;66.38;99924.85;105596;1251;73777;-51
2023/04/23 04:34:22;;;;;;;20.30;11.60;;;;;;;9.19;66.22;99921.35;105604;1252;70027;-52
2023/04/23 04:37:00;;;;;;;19.90;12.10;;;;;;;9.24;66.42;99918.38;105642;1255;70008;-52
2023/04/23 04:39:40;;;;;;;19.30;12.50;;;;;;;9.30;66.25;99917.61;105742;1251;75005;-49
2023/04/23 04:42:11;;;;;;;21.40;12.60;;;;;;;9.33;66.24;99912.45;105693;1255;83287;-51
2023/04/23 04:44:45;;;;;;;20.40;13.40;;;;;;;9.35;66.28;99911.98;105887;1255;73738;-52
2023/04/23 04:47:15;;;;;;;20.90;13.30;;;;;;;9.38;66.42;99913.80;105714;1251;69930;-51
2023/04/23 04:49:46;;;;;;;15.90;12.40;;;;;;;9.40;66.27;99914.95;105653;1254;70005;-50
2023/04/23 04:52:15;;;;;;;19.20;12.60;;;;;;;9.43;66.28;99917.11;105605;1251;74965;-52
2023/04/23 04:54:49;;;;;;;22.10;12.20;;;;;;;9.49;66.36;99917.91;105754;1255;83369;-52
2023/04/23 04:57:20;;;;;;;16.60;11.70;;;;;;;9.60;66.47;99915.90;106041;1251;73741;-50
2023/04/23 04:59:51;;;;;;;;;;;;;;;9.72;66.23;99915.20;105808;1254;69980;-52
2023/04/23 05:02:22;;;;;;;14.40;10.50;;;;;;;9.85;66.34;99912.58;105724;1251;70097;-53
2023/04/23 05:04:53;;;;;;;16.80;10.70;;;;;;;9.94;66.30;99912.36;106079;1251;74571;-51
2023/04/23 05:07:31;;;;;;;14.30;10.20;;;;;;;10.03;66.38;99910.79;105720;1251;83371;-53
2023/04/23 05:09:59;;;;;;;18.40;10.30;;;;;;;10.13;66.02;99912.47;105706;1251;73642;-53
2023/04/23 05:12:28;;;;;;;15.20;10.80;;;;;;;10.25;66.09;99917.55;105558;1251;69925;-50
2023/04/23 05:15:08;;;;;;;14.00;10.10;;;;;;;10.36;66.04;99917.95;105587;1254;69250;-53
2023/04/23 05:17:40;;;;;;;13.90;10.50;;;;;;;10.46;65.64;99915.95;105756;1253;74824;-51
2023/04/23 05:20:09;;;;;;;12.90;10.10;;;;;;;10.56;65.61;99915.69;105736;1250;83738;-53
2023/04/23 05:22:41;;;;;;;14.50;11.40;;;;;;;10.64;65.37;99912.16;105691;1251;73878;-54
2023/04/23 05:25:13;;;;;;;16.20;11.90;;;;;;;10.72;65.21;99910.59;105680;1255;69937;-52
2023/04/23 05:27:45;;;;;;;15.20;10.90;;;;;;;10.80;64.76;99909.16;105584;1256;69903;-52
2023/04/23 05:30:14;;;;;;;16.00;10.70;;;;;;;10.87;64.82;99904.80;105952;1251;74851;-50
2023/04/23 05:32:45;;;;;;;18.00;10.90;;;;;;;10.94;64.60;99907.81;105614;1254;83366;-51
2023/04/23 05:35:15;;;;;;;15.20;10.10;;;;;;;11.01;64.56;99906.98;105704;1251;73689;-50
2023/04/23 05:37:43;;;;;;;17.50;11.50;;;;;;;11.09;64.63;99911.16;106026;1254;69941;-51
2023/04/23 05:40:12;;;;;;;14.50;10.20;;;;;;;11.16;64.68;99904.69;105762;1251;69281;-52
2023/04/23 05:42:41;;;;;;;14.20;10.40;;;;;;;11.24;64.47;99905.53;105639;1254;75040;-49
2023/04/23 05:45:10;;;;;;;13.60;10.80;;;;;;;11.32;64.32;99902.15;105633;1256;83441;-49
2023/04/23 05:47:41;;;;;;;13.90;10.40;;;;;;;11.42;64.29;99905.39;105629;1254;72674;-53
2023/04/23 05:50:10;;;;;;;17.40;10.40;;;;;;;11.51;64.35;99903.73;105582;1253;69883;-49
2023/04/23 05:52:38;;;;;;;15.90;10.10;;;;;;;11.61;63.99;99897.11;105937;1256;69893;-52
2023/04/23 05:55:08;;;;;;;16.30;10.20;;;;;;;11.69;64.01;99894.42;105622;1256;74924;-52
2023/04/23 05:57:38;;;;;;;16.80;10.50;;;;;;;11.77;63.85;99894.23;106071;1250;82628;-49
2023/04/23 06:00:15;;;;;;;16.80;10.40;;;;;;;11.85;64.05;99893.31;105602;1254;73437;-52
2023/04/23 06:02:46;;;;;;;14.50;9.70;;;;;;;11.92;63.81;99897.69;105815;1254;70015;-51
2023/04/23 06:05:15;;;;;;;17.40;9.90;;;;;;;11.99;63.50;99897.52;105719;1251;70619;-50
2023/04/23 06:07:44;;;;;;;13.70;9.50;;;;;;;12.05;63.51;99897.73;105714;1251;74725;-50
2023/04/23 06:10:18;;;;;;;16.30;9.30;;;;;;;12.12;63.52;99900.54;105655;1251;83513;-50
2023/04/23 06:12:48;;;;;;;14.40;10.20;;;;;;;12.20;63.54;99901.87;105644;1251;73812;-52
2023/04/23 06:15:19;;;;;;;13.30;9.00;;;;;;;12.30;63.55;99902.77;105689;1254;69157;-51
2023/04/23 06:17:48;;;;;;;14.60;8.80;;;;;;;12.42;63.49;99899.52;105605;1251;69899;-51
2023/04/23 06:20:19;;;;;;;11.80;8.60;;;;;;;12.53;63.49;99899.81;105852;1251;74827;-50
2023/04/23 06:22:48;;;;;;;13.70;9.20;;;;;;;12.63;63.45;99896.61;105767;1250;84113;-51
2023/04/23 06:25:19;;;;;;;12.60;8.00;;;;;;;12.75;63.48;99896.86;105666;1251;73128;-52
2023/04/23 06:27:47;;;;;;;13.30;8.30;;;;;;;12.86;63.24;99892.95;105669;1254;69816;-51
2023/04/23 06:30:20;;;;;;;13.20;8.30;;;;;;;12.96;63.19;99888.52;105711;1254;69182;-53
2023/04/23 06:32:49;;;;;;;13.10;8.30;;;;;;;13.05;62.85;99886.64;105565;1256;75023;-52
2023/04/23 06:35:17;;;;;;;11.00;8.20;;;;;;;13.14;62.68;99881.91;105655;1257;83933;-50
2023/04/23 06:37:55;;;;;;;13.70;8.80;;;;;;;13.23;62.60;99885.63;105999;1251;73636;-51
2023/04/23 06:40:23;;;;;;;11.30;7.80;;;;;;;13.32;62.40;99879.56;105693;1252;69185;-54
2023/04/23 06:42:54;;;;;;;10.90;7.50;;;;;;;13.41;62.31;99875.64;105609;1251;69762;-55
2023/04/23 06:45:55;;;;;;;12.00;7.80;;;;;;;13.55;62.30;99875.09;105377;1251;73902;-49
2023/04/23 06:48:25;;;;;;;10.90;8.00;;;;;;;13.67;62.17;99869.78;105907;1251;83621;-50
2023/04/23 06:50:54;;;;;;;11.40;7.60;;;;;;;13.78;61.92;99869.31;105686;1251;72736;-56
2023/04/23 06:53:22;;;;;;;9.30;6.80;;;;;;;13.88;61.63;99868.42;105674;1251;69979;-50
2023/04/23 06:55:51;;;;;;;10.30;6.80;;;;;;;13.97;61.55;99863.83;106078;1250;69204;-50
2023/04/23 06:58:20;;;;;;;8.80;6.90;;;;;;;14.09;61.55;99863.30;105767;1251;75052;-53
2023/04/23 07:00:49;;;;;;;10.30;6.70;;;;;;;14.18;61.40;99864.30;105759;1250;83438;-52
2023/04/23 07:03:19;;;;;;;8.90;6.80;;;;;;;14.27;61.15;99864.09;105714;1254;73809;-53
2023/04/23 07:05:47;;;;;;;13.10;6.50;;;;;;;14.38;61.15;99858.19;105696;1251;69175;-51
2023/04/23 07:08:16;;;;;;;7.90;6.30;;;;;;;14.49;60.92;99856.05;105837;1250;69746;-53
2023/04/23 07:10:47;;;;;;;9.30;6.50;;;;;;;14.60;60.90;99852.45;105600;1254;74987;-51
2023/04/23 07:13:16;;;;;;;7.90;5.80;;;;;;;14.73;60.72;99854.66;105614;1251;82938;-51
2023/04/23 07:15:45;;;;;;;10.60;5.70;;;;;;;14.86;60.61;99859.10;105899;1251;73864;-53
2023/04/23 07:18:13;;;;;;;10.40;6.60;;;;;;;14.98;60.09;99854.61;105690;1254;69953;-51
2023/04/23 07:20:42;;;;;;;8.10;5.50;;;;;;;15.08;59.90;99858.56;105859;1254;69195;-49
2023/04/23 07:23:10;;;;;;;7.90;6.00;;;;;;;15.18;59.53;99861.42;105784;1251;75107;-50
2023/04/23 07:25:39;;;;;;;8.00;5.00;;;;;;;15.28;59.31;99858.32;105620;1251;83032;-51
2023/04/23 07:28:10;;;;;;;7.80;4.80;;;;;;;15.37;59.04;99852.77;105759;1251;73702;-50
2023/04/23 07:30:38;;;;;;;7.70;5.00;;;;;;;15.47;58.77;99852.34;105637;1251;69132;-51
2023/04/23 07:33:07;;;;;;;8.30;5.10;;;;;;;15.56;58.50;99853.13;105721;1256;70007;-51
2023/04/23 07:35:36;;;;;;;6.70;4.60;;;;;;;15.63;58.25;99847.59;105965;1251;74200;-51
2023/04/23 07:38:04;;;;;;;8.90;5.40;;;;;;;15.71;58.16;99848.83;105610;1254;83471;-52
2023/04/23 07:40:33;;;;;;;8.60;5.00;;;;;;;15.78;58.02;99844.28;105893;1255;73572;-52
2023/04/23 07:43:01;;;;;;;7.70;5.00;;;;;;;15.89;58.19;99845.35;105666;1251;70040;-53
2023/04/23 07:45:30;;;;;;;6.80;4.70;;;;;;;16.00;57.75;99849.88;105482;1257;69877;-53
2023/04/23 07:48:00;;;;;;;10.70;5.70;;;;;;;16.08;57.41;99848.28;105613;1254;74804;-52
2023/04/23 07:50:29;;;;;;;10.50;5.60;;;;;;;16.16;57.19;99842.06;105723;1255;83543;-49
2023/04/23 07:52:58;;;;;;;7.90;5.40;;;;;;;16.23;56.78;99841.42;105657;1251;72758;-52
2023/04/23 07:55:26;;;;;;;9.80;5.10;;;;;;;16.30;56.80;99835.98;105651;1255;70013;-52
2023/04/23 07:57:54;;;;;;;9.10;5.20;;;;;;;16.39;56.55;99834.45;105738;1254;70008;-54
2023/04/23 08:00:23;;;;;;;6.50;4.60;;;;;;;16.45;56.36;99831.71;105629;1255;74616;-51
2023/04/23 08:02:52;;;;;;;9.40;5.10;;;;;;;16.54;56.45;99830.24;106093;1250;81547;-49
2023/04/23 08:05:21;;;;;;;13.50;5.70;;;;;;;16.68;56.53;99822.72;105952;1254;74038;-51
2023/04/23 08:07:50;;;;;;;9.30;4.90;;;;;;;16.85;56.21;99818.00;105783;1251;69874;-51
2023/04/23 08:10:18;;;;;;;8.70;4.90;;;;;;;16.98;55.95;99808.61;105639;1256;70001;-49
2023/04/23 08:12:46;;;;;;;9.20;5.30;;;;;;;17.13;55.65;99804.99;105798;1254;75514;-49
2023/04/23 08:15:15;;;;;;;7.90;4.70;;;;;;;17.29;55.53;99803.30;105621;1255;82985;-51
2023/04/23 08:17:43;;;;;;;7.90;5.00;;;;;;;17.45;55.19;99803.88;105731;1251;73894;-52
2023/04/23 08:20:12;;;;;;;9.10;4.60;;;;;;;17.59;55.17;99805.81;105772;1254;69114;-53
2023/04/23 08:22:40;;;;;;;9.10;5.20;;;;;;;17.74;55.27;99806.59;105647;1251;69064;-53
2023/04/23 08:25:09;;;;;;;9.40;4.90;;;;;;;17.90;55.20;99808.45;105647;1254;75485;-53
2023/04/23 08:27:37;;;;;;;6.20;4.80;;;;;;;18.01;54.67;99811.86;105770;1251;83303;-49
2023/04/23 08:30:07;;;;;;;7.90;5.10;;;;;;;18.06;54.27;99807.34;105708;1255;74115;-51
2023/04/23 08:32:37;;;;;;;7.20;5.30;;;;;;;18.13;54.31;99808.96;105746;1254;69809;-51
2023/04/23 08:35:07;;;;;;;;;;;;;;;18.22;54.04;99808.22;105733;1256;69871;-51
2023/04/23 08:37:35;;;;;;;9.70;4.60;;;;;;;18.26;53.64;99809.14;105702;1255;73891;-57
2023/04/23 08:40:04;;;;;;;8.20;4.70;;;;;;;18.31;53.54;99812.14;105583;1256;83469;-53
2023/04/23 08:42:56;;;;;;;7.90;4.50;;;;;;;18.39;53.31;99813.25;105849;1257;72715;-53
2023/04/23 08:45:25;;;;;;;5.70;3.90;;;;;;;18.50;53.05;99811.84;105760;1251;69928;-52
2023/04/23 08:48:50;;;;;;;8.30;4.60;;;;;;;18.60;52.82;99808.96;107312;1251;69276;-57
2023/04/23 08:51:20;;;;;;;9.40;4.40;;;;;;;18.73;52.50;99810.55;105310;1258;74803;-58
2023/04/23 08:53:51;;;;;;;7.60;4.70;;;;;;;18.86;52.28;99807.61;105471;1259;83528;-58
2023/04/23 08:56:20;;;;;;;6.30;4.70;;;;;;;19.05;52.28;99808.88;105398;1259;73210;-58
2023/04/23 08:58:49;;;;;;;6.20;4.10;;;;;;;19.23;52.43;99811.00;105178;1254;69203;-58
2023/04/23 09:01:18;;;;;;;6.50;4.50;;;;;;;19.35;51.71;99810.17;105420;1259;69196;-58
2023/04/23 09:03:46;;;;;;;6.40;4.10;;;;;;;19.42;51.40;99799.29;105494;1258;74322;-57
2023/04/23 09:06:15;;;;;;;8.90;4.30;;;;;;;19.55;51.23;99796.97;105355;1254;83324;-56
2023/04/23 09:08:44;;;;;;;8.50;4.30;;;;;;;19.75;51.22;99795.30;105375;1254;73872;-59
2023/04/23 09:11:14;;;;;;;11.90;4.40;;;;;;;19.97;51.02;99800.14;105383;1259;69187;-60
2023/04/23 09:13:42;;;;;;;7.00;4.20;;;;;;;20.13;50.67;99796.69;105227;1260;69849;-59
2023/04/23 09:16:11;;;;;;;10.00;4.10;;;;;;;20.26;50.58;99795.92;105359;1259;74225;-59
2023/04/23 09:18:39;;;;;;;8.00;4.30;;;;;;;20.48;50.71;99791.84;105362;1257;82564;-59
2023/04/23 09:21:07;;;;;;;7.50;4.40;;;;;;;20.66;50.30;99789.02;105363;1258;74158;-59
2023/04/23 09:23:38;;;;;;;11.10;4.80;;;;;;;20.79;50.08;99787.17;105133;1260;69230;-56
2023/04/23 09:26:07;;;;;;;8.10;4.50;;;;;;;20.96;50.03;99786.38;105225;1259;69215;-59
2023/04/23 09:28:36;;;;;;;7.90;3.90;;;;;;;21.19;49.75;99788.54;105246;1259;75040;-60
2023/04/23 09:31:07;;;;;;;7.60;4.30;;;;;;;21.37;49.36;99784.27;105308;1257;83393;-59
2023/04/23 09:33:35;;;;;;;7.60;3.60;;;;;;;21.60;49.08;99786.40;105170;1256;73628;-58
2023/04/23 09:36:11;;;;;;;5.50;3.90;;;;;;;21.80;49.03;99784.02;105432;1258;69573;-58
2023/04/23 09:38:40;;;;;;;7.10;4.10;;;;;;;21.89;48.15;99782.97;105346;1259;69187;-61
2023/04/23 09:41:21;;;;;;;7.50;4.20;;;;;;;21.91;47.68;99787.91;105181;1261;75168;-60
2023/04/23 09:43:52;;;;;;;6.60;3.80;;;;;;;21.97;47.42;99781.34;105374;1259;83237;-59
2023/04/23 09:46:36;;;;;;;6.10;3.60;;;;;;;22.01;47.37;99780.06;105348;1259;72715;-60
2023/04/23 09:49:06;;;;;;;7.10;3.90;;;;;;;22.05;46.99;99776.77;105305;1259;69157;-59
2023/04/23 09:51:52;;;;;;;5.80;3.60;;;;;;;22.03;46.98;99779.45;105360;1257;69126;-60
2023/04/23 09:54:22;;;;;;;7.10;3.70;;;;;;;22.03;46.78;99776.96;105348;1259;75199;-59
2023/04/23 09:56:52;;;;;;;7.90;3.90;;;;;;;22.07;46.89;99774.86;105339;1257;83535;-59
2023/04/23 09:59:28;;;;;;;5.90;3.70;;;;;;;22.14;46.84;99771.31;105319;1256;72747;-60
2023/04/23 10:02:14;;;;;;;5.70;4.00;;;;;;;22.26;46.73;99773.11;105321;1255;69217;-60
2023/04/23 10:04:43;;;;;;;6.60;3.90;;;;;;;22.41;46.50;99774.44;105383;1259;69180;-59
2023/04/23 10:07:14;;;;;;;5.60;3.60;;;;;;;22.57;46.38;99770.63;105380;1257;74844;-60
2023/04/23 10:09:47;;;;;;;5.60;3.50;;;;;;;22.84;46.29;99767.42;105156;1257;83412;-59
2023/04/23 10:12:16;;;;;;;5.60;3.30;;;;;;;23.13;46.11;99768.35;105307;1259;74117;-60
2023/04/23 10:15:05;;;;;;;7.80;3.70;;;;;;;23.49;45.78;99764.24;105325;1257;70657;-60
2023/04/23 10:17:37;;;;;;;5.20;3.40;;;;;;;23.72;45.32;99766.17;105320;1257;69113;-60
2023/04/23 10:20:09;;;;;;;4.40;3.40;;;;;;;23.93;45.23;99772.71;105300;1256;72916;-60
2023/04/23 10:22:38;;;;;;;7.60;3.80;;;;;;;24.00;44.53;99768.60;105308;1257;82755;-59
2023/04/23 10:25:10;;;;;;;4.60;3.20;;;;;;;23.93;43.99;99771.48;105300;1259;72751;-60
2023/04/23 10:27:41;;;;;;;6.00;3.20;;;;;;;23.73;43.40;99773.88;105289;1258;69208;-60
2023/04/23 10:30:21;;;;;;;4.80;3.40;;;;;;;23.55;43.36;99770.51;105388;1257;69183;-60
2023/04/23 10:32:50;;;;;;;;;;;;;;;23.42;43.19;99773.42;105375;1258;74024;-60
2023/04/23 10:35:18;;;;;;;6.30;3.20;;;;;;;23.27;42.95;99771.23;105200;1259;83297;-60
2023/04/23 10:37:47;;;;;;;5.00;2.80;;;;;;;23.09;42.72;99769.86;105191;1256;72717;-59
2023/04/23 10:40:21;;;;;;;6.00;2.70;;;;;;;23.05;42.93;99770.60;105186;1256;69100;-60
2023/04/23 10:42:49;;;;;;;7.00;3.20;;;;;;;22.93;42.80;99770.81;105329;1258;69893;-60
2023/04/23 10:45:19;;;;;;;6.40;2.80;;;;;;;22.85;42.64;99774.80;105298;1259;74007;-60
2023/04/23 10:47:52;;;;;;;6.20;3.40;;;;;;;22.75;42.61;99777.41;104700;1263;84281;-59
2023/04/23 10:50:29;;;;;;;5.90;3.20;;;;;;;22.68;42.77;99772.89;104711;1267;72981;-59
2023/04/23 10:52:58;;;;;;;4.90;3.30;;;;;;;22.59;42.91;99771.31;104726;1264;69115;-59
2023/04/23 10:55:28;;;;;;;5.70;3.20;;;;;;;22.53;42.85;99776.35;104745;1263;69122;-59
2023/04/23 10:58:00;;;;;;;5.60;3.10;;;;;;;22.53;43.02;99780.09;104724;1264;75062;-60
2023/04/23 11:00:51;;;;;;;6.20;3.00;;;;;;;22.59;43.17;99782.23;104796;1265;83151;-60
2023/04/23 11:03:40;;;;;;;4.60;2.90;;;;;;;22.61;43.38;99781.64;104680;1264;73932;-60
2023/04/23 11:06:39;;;;;;;5.60;3.20;;;;;;;22.53;42.92;99779.71;104945;1255;69138;-60
2023/04/23 11:09:29;;;;;;;7.60;3.60;;;;;;;22.41;43.17;99782.17;105225;1255;69187;-60
2023/04/23 11:12:00;;;;;;;4.60;3.40;;;;;;;22.26;43.31;99782.65;105203;1257;75017;-60
2023/04/23 11:14:37;;;;;;;3.40;2.90;;;;;;;22.16;43.39;99785.42;105272;1259;83387;-60
2023/04/23 11:17:07;;;;;;;7.30;3.30;;;;;;;22.11;43.81;99785.92;105260;1260;73817;-60
2023/04/23 11:19:40;;;;;;;4.30;2.90;;;;;;;22.10;44.13;99785.98;105213;1255;69211;-59
2023/04/23 11:22:19;;;;;;;7.20;3.40;;;;;;;22.13;44.31;99786.19;105264;1257;69180;-60
2023/04/23 11:24:48;;;;;;;4.70;2.60;;;;;;;22.11;44.30;99788.86;105276;1256;74818;-58
2023/04/23 11:27:18;;;;;;;5.60;2.10;;;;;;;22.07;44.04;99795.52;105211;1260;83447;-59
2023/04/23 11:29:46;;;;;;;4.20;3.40;;;;;;;21.93;43.50;99792.41;105106;1260;73746;-59
2023/04/23 11:32:17;;;;;;;5.00;3.40;;;;;;;21.77;43.34;99794.20;105214;1260;69158;-59
2023/04/23 11:34:46;;;;;;;3.10;2.30;;;;;;;21.60;43.23;99791.35;105125;1256;163923;-60
2023/04/23 11:37:17;;;;;;;10.40;8.20;;;;;;;21.54;43.44;99792.85;105222;1257;74909;-60
2023/04/23 11:39:46;;;;;;;2.20;1.70;;;;;;;21.50;43.56;99794.42;105209;1260;83418;-59
2023/04/23 11:42:16;;;;;;;3.80;1.80;;;;;;;21.44;43.73;99797.29;105274;1256;73483;-59
2023/04/23 11:44:44;;;;;;;7.30;2.30;;;;;;;21.39;43.86;99794.00;105224;1256;69100;-59
2023/04/23 11:47:15;;;;;;;3.10;1.20;;;;;;;21.42;43.68;99798.74;105249;1256;69219;-59
2023/04/23 11:49:44;;;;;;;3.90;1.70;;;;;;;21.49;43.53;99802.00;105102;1262;74003;-59
2023/04/23 11:52:13;;;;;;;2.90;1.70;;;;;;;21.63;43.74;99802.13;105226;1256;83819;-60
2023/04/23 11:54:41;;;;;;;5.90;3.30;;;;;;;21.78;43.73;99801.38;105324;1257;72811;-59
2023/04/23 11:57:10;;;;;;;5.90;2.20;;;;;;;21.91;43.95;99795.89;105313;1256;69245;-59
2023/04/23 11:59:38;;;;;;;3.10;2.50;;;;;;;22.05;43.89;99796.75;105265;1260;69199;-59
2023/04/23 12:02:07;;;;;;;3.00;1.60;;;;;;;22.19;44.04;99789.89;105247;1260;74163;-60
2023/04/23 12:04:36;;;;;;;2.80;2.00;;;;;;;22.32;43.80;99789.44;105258;1257;82491;-60
2023/04/23 12:07:08;;;;;;;5.80;2.40;;;;;;;22.45;43.97;99792.38;105161;1260;71763;-59
2023/04/23 12:09:50;;;;;;;4.70;1.90;;;;;;;22.41;43.22;99793.54;105177;1256;69091;-60